createdAt,value
2018-10-02T00:02:58.267Z,8.20
2018-10-02T00:07:00.632Z,8.20
2018-10-02T00:11:08.808Z,8.60
2018-10-02T00:15:11.126Z,8.20
2018-10-02T00:19:13.415Z,9.20
2018-10-02T00:23:15.688Z,8.20
2018-10-02T00:27:18.072Z,7.80
2018-10-02T00:31:20.608Z,7.70
2018-10-02T00:35:22.838Z,8.40
2018-10-02T00:39:25.127Z,8.30
2018-10-02T00:43:27.414Z,8.40
2018-10-02T00:47:29.743Z,8.10
2018-10-02T00:51:32.059Z,8.70
2018-10-02T00:55:34.334Z,8.50
2018-10-02T00:59:36.654Z,8.30
2018-10-02T01:03:39.032Z,8.00
2018-10-02T01:07:41.291Z,8.40
2018-10-02T01:11:43.584Z,8.90
2018-10-02T01:15:45.906Z,8.50
2018-10-02T01:19:48.249Z,8.50
2018-10-02T01:23:50.568Z,8.30
2018-10-02T01:27:52.875Z,8.50
2018-10-02T01:31:55.682Z,8.30
2018-10-02T01:35:58.549Z,8.40
2018-10-02T01:40:00.895Z,8.90
2018-10-02T01:44:03.217Z,8.80
2018-10-02T01:48:05.563Z,9.00
2018-10-02T01:52:07.875Z,9.30
2018-10-02T01:56:10.168Z,10.20
2018-10-02T02:00:12.542Z,10.30
2018-10-02T02:04:14.812Z,10.40
2018-10-02T02:08:17.053Z,9.80
2018-10-02T02:12:19.393Z,9.50
2018-10-02T02:16:21.672Z,9.40
2018-10-02T02:20:23.934Z,9.30
2018-10-02T02:24:26.208Z,9.30
2018-10-02T02:28:28.527Z,9.40
2018-10-02T02:32:31.027Z,9.90
2018-10-02T02:36:42.887Z,10.10
2018-10-02T02:40:45.163Z,10.30
2018-10-02T02:44:47.468Z,11.00
2018-10-02T02:48:55.282Z,11.20
2018-10-02T02:53:03.553Z,11.10
2018-10-02T02:57:05.696Z,10.90
2018-10-02T03:01:08.036Z,10.50
2018-10-02T03:05:10.321Z,9.90
2018-10-02T03:09:12.609Z,10.20
2018-10-02T03:13:14.897Z,10.60
2018-10-02T03:17:17.178Z,10.90
2018-10-02T03:21:19.462Z,11.20
2018-10-02T03:25:21.764Z,11.40
2018-10-02T03:29:24.084Z,11.00
2018-10-02T03:33:26.333Z,10.90
2018-10-02T03:37:28.609Z,11.30
2018-10-02T03:41:30.879Z,11.20
2018-10-02T03:45:33.144Z,11.60
2018-10-02T03:49:35.420Z,11.40
2018-10-02T03:53:37.746Z,11.20
2018-10-02T03:57:40.031Z,11.20
2018-10-02T04:01:42.363Z,10.90
2018-10-02T04:05:44.718Z,11.00
2018-10-02T04:09:46.993Z,11.30
2018-10-02T04:13:49.317Z,11.30
2018-10-02T04:17:51.602Z,11.10
2018-10-02T04:21:53.878Z,10.50
2018-10-02T04:25:56.102Z,10.00
2018-10-02T04:29:58.324Z,9.60
2018-10-02T04:34:00.607Z,9.30
2018-10-02T04:38:02.993Z,9.80
2018-10-02T04:42:05.526Z,10.00
2018-10-02T04:46:08.014Z,10.00
2018-10-02T04:50:10.338Z,10.60
2018-10-02T04:54:12.588Z,10.90
2018-10-02T04:58:14.882Z,11.00
2018-10-02T05:02:17.216Z,11.00
2018-10-02T05:06:19.456Z,10.70
2018-10-02T05:10:21.757Z,10.80
2018-10-02T05:14:24.188Z,11.20
2018-10-02T05:18:26.466Z,11.50
2018-10-02T05:22:28.783Z,11.60
2018-10-02T05:26:31.042Z,11.50
2018-10-02T05:30:33.371Z,11.50
2018-10-02T05:34:35.670Z,11.60
2018-10-02T05:38:37.956Z,11.70
2018-10-02T05:42:40.275Z,11.90
2018-10-02T05:46:42.553Z,12.00
2018-10-02T05:50:44.984Z,11.70
2018-10-02T05:54:47.273Z,12.10
2018-10-02T05:58:49.707Z,12.30
2018-10-02T06:02:52.080Z,11.70
2018-10-02T06:06:54.387Z,11.70
2018-10-02T06:10:56.667Z,12.00
2018-10-02T06:14:58.952Z,12.50
2018-10-02T06:19:01.451Z,11.60
2018-10-02T06:23:03.702Z,12.40
2018-10-02T06:27:06.106Z,13.00
2018-10-02T06:31:08.513Z,12.50
2018-10-02T06:35:10.790Z,12.50
2018-10-02T06:39:13.124Z,13.10
2018-10-02T06:43:15.376Z,13.40
2018-10-02T06:47:17.637Z,13.50
2018-10-02T06:51:20.173Z,12.50
2018-10-02T06:55:23.800Z,11.30
2018-10-02T06:59:26.125Z,11.20
2018-10-02T07:03:28.547Z,11.00
2018-10-02T07:07:30.907Z,11.20
2018-10-02T07:11:33.280Z,11.30
2018-10-02T07:15:35.552Z,12.40
2018-10-02T07:19:37.886Z,12.20
2018-10-02T07:23:40.205Z,12.20
2018-10-02T07:27:43.441Z,12.20
2018-10-02T07:31:45.675Z,11.30
2018-10-02T07:35:47.986Z,11.50
2018-10-02T07:39:50.347Z,11.50
2018-10-02T07:43:52.622Z,11.20
2018-10-02T07:47:54.928Z,11.50
2018-10-02T07:51:57.207Z,11.70
2018-10-02T07:55:59.574Z,11.30
2018-10-02T08:00:01.948Z,11.20
2018-10-02T08:04:04.228Z,10.90
2018-10-02T08:08:06.822Z,11.10
2018-10-02T08:12:09.316Z,11.30
2018-10-02T08:16:11.620Z,10.90
2018-10-02T08:20:13.932Z,11.40
2018-10-02T08:24:16.267Z,11.50
2018-10-02T08:28:20.081Z,10.70
2018-10-02T08:32:22.407Z,10.70
2018-10-02T08:36:24.748Z,10.70
2018-10-02T08:40:27.086Z,11.20
2018-10-02T08:44:29.490Z,11.30
2018-10-02T08:48:31.791Z,11.70
2018-10-02T08:52:34.123Z,11.90
2018-10-02T08:56:36.525Z,11.90
2018-10-02T09:00:38.963Z,11.20
2018-10-02T09:04:41.347Z,11.40
2018-10-02T09:08:43.665Z,11.40
2018-10-02T09:12:46.124Z,11.80
2018-10-02T09:16:48.397Z,10.40
2018-10-02T09:20:50.770Z,10.80
2018-10-02T09:24:53.047Z,10.70
2018-10-02T09:28:55.383Z,9.90
2018-10-02T09:33:03.293Z,10.50
2018-10-02T09:37:11.418Z,10.80
2018-10-02T09:41:19.163Z,9.80
2018-10-02T09:45:21.500Z,9.90
2018-10-02T09:49:23.812Z,10.30
2018-10-02T09:53:26.105Z,10.00
2018-10-02T09:57:28.444Z,10.80
2018-10-02T10:01:36.371Z,10.40
2018-10-02T10:05:38.653Z,10.20
2018-10-02T10:09:40.937Z,10.00
2018-10-02T10:13:43.217Z,10.30
2018-10-02T10:17:45.669Z,10.70
2018-10-02T10:21:47.984Z,10.20
2018-10-02T10:25:50.281Z,10.40
2018-10-02T10:29:52.555Z,10.60
2018-10-02T10:33:54.900Z,10.80
2018-10-02T10:37:57.239Z,10.70
2018-10-02T10:41:59.551Z,10.30
2018-10-02T10:46:01.874Z,10.80
2018-10-02T10:50:04.195Z,10.10
2018-10-02T10:54:06.629Z,10.20
2018-10-02T10:58:08.959Z,9.70
2018-10-02T11:02:12.074Z,10.20
2018-10-02T11:06:14.373Z,10.10
2018-10-02T11:10:17.899Z,10.50
2018-10-02T11:14:20.243Z,10.20
2018-10-02T11:18:22.564Z,10.10
2018-10-02T11:22:26.847Z,10.50
2018-10-02T11:26:29.809Z,10.20
2018-10-02T11:30:32.179Z,10.70
2018-10-02T11:34:35.080Z,10.80
2018-10-02T11:38:37.401Z,11.10
2018-10-02T11:42:39.734Z,10.80
2018-10-02T11:46:42.105Z,11.40
2018-10-02T11:50:44.540Z,10.20
2018-10-02T11:54:47.270Z,10.50
2018-10-02T11:58:49.649Z,9.70
2018-10-02T12:02:51.984Z,10.00
2018-10-02T12:06:54.432Z,10.60
2018-10-02T12:10:56.684Z,10.60
2018-10-02T12:14:59.319Z,11.30
2018-10-02T12:19:01.644Z,10.40
2018-10-02T12:23:03.959Z,10.90
2018-10-02T12:27:06.363Z,11.40
2018-10-02T12:31:08.975Z,11.30
2018-10-02T12:35:11.428Z,11.20
2018-10-02T12:39:13.713Z,10.40
2018-10-02T12:47:42.095Z,10.70
2018-10-02T12:51:44.453Z,11.20
2018-10-02T12:55:46.743Z,11.10
2018-10-02T12:59:49.118Z,11.20
2018-10-02T13:03:52.458Z,11.50
2018-10-02T13:07:54.736Z,11.50
2018-10-02T13:11:57.149Z,11.40
2018-10-02T13:15:59.444Z,11.40
2018-10-02T13:20:01.977Z,11.60
2018-10-02T13:24:04.262Z,12.00
2018-10-02T13:28:06.672Z,12.00
2018-10-02T13:32:09.057Z,11.30
2018-10-02T13:36:11.452Z,10.90
2018-10-02T13:40:13.803Z,10.90
2018-10-02T13:44:16.290Z,11.30
2018-10-02T13:48:18.719Z,11.40
2018-10-02T13:52:21.533Z,11.50
2018-10-02T13:56:24.927Z,11.10
2018-10-02T14:00:27.678Z,11.50
2018-10-02T14:04:30.018Z,11.80
2018-10-02T14:08:32.417Z,11.70
2018-10-02T14:12:34.756Z,11.20
2018-10-02T14:16:37.018Z,11.60
2018-10-02T14:20:39.596Z,11.70
2018-10-02T14:24:41.918Z,12.10
2018-10-02T14:28:44.312Z,11.50
2018-10-02T14:32:46.677Z,12.10
2018-10-02T14:36:48.962Z,11.90
2018-10-02T14:40:51.357Z,12.10
2018-10-02T14:44:53.728Z,12.00
2018-10-02T14:48:56.052Z,12.30
2018-10-02T14:52:58.438Z,12.10
2018-10-02T14:57:00.768Z,11.90
2018-10-02T15:01:03.134Z,12.50
2018-10-02T15:05:05.460Z,12.30
2018-10-02T15:09:08.399Z,12.60
2018-10-02T15:13:10.806Z,12.80
2018-10-02T15:17:13.191Z,12.40
2018-10-02T15:21:15.611Z,12.20
2018-10-02T15:25:17.950Z,12.50
2018-10-02T15:29:20.358Z,12.00
2018-10-02T15:33:22.663Z,12.70
2018-10-02T15:37:25.067Z,12.40
2018-10-02T15:41:27.371Z,12.80
2018-10-02T15:45:29.672Z,12.40
2018-10-02T15:49:32.072Z,12.70
2018-10-02T15:53:34.453Z,11.90
2018-10-02T15:57:36.832Z,12.10
2018-10-02T16:01:39.228Z,12.30
2018-10-02T16:05:41.692Z,12.00
2018-10-02T16:09:44.057Z,12.30
2018-10-02T16:13:46.439Z,11.10
2018-10-02T16:17:48.857Z,12.10
2018-10-02T16:21:51.329Z,11.90
2018-10-02T16:25:53.662Z,11.20
2018-10-02T16:29:56.003Z,11.10
2018-10-02T16:33:58.306Z,11.40
2018-10-02T16:38:00.631Z,11.40
2018-10-02T16:42:03.057Z,12.10
2018-10-02T16:46:05.341Z,11.60
2018-10-02T16:50:07.650Z,11.70
2018-10-02T16:54:09.998Z,11.60
2018-10-02T16:58:12.329Z,11.60
2018-10-02T17:02:14.640Z,11.90
2018-10-02T17:06:17.011Z,12.20
2018-10-02T17:10:19.327Z,11.70
2018-10-02T17:14:21.813Z,11.60
2018-10-02T17:18:24.164Z,11.40
2018-10-02T17:22:26.499Z,11.40
2018-10-02T17:26:28.926Z,12.50
2018-10-02T17:30:31.270Z,11.90
2018-10-02T17:34:33.636Z,11.60
2018-10-02T17:38:36.025Z,12.20
2018-10-02T17:42:38.419Z,12.90
2018-10-02T17:46:40.746Z,12.20
2018-10-02T17:50:43.157Z,12.30
2018-10-02T17:59:05.756Z,12.10
2018-10-02T18:03:08.108Z,12.40
2018-10-02T18:07:10.467Z,12.30
2018-10-02T18:11:12.825Z,13.50
2018-10-02T18:15:15.162Z,13.90
2018-10-02T18:19:17.469Z,13.20
2018-10-02T18:23:19.802Z,13.20
2018-10-02T18:27:22.251Z,13.00
2018-10-02T18:31:24.559Z,13.40
2018-10-02T18:35:27.081Z,12.20
2018-10-02T18:39:29.561Z,12.80
2018-10-02T18:43:31.890Z,12.60
2018-10-02T18:47:34.220Z,12.80
2018-10-02T18:51:36.604Z,13.30
2018-10-02T18:55:39.029Z,12.90
2018-10-02T18:59:41.687Z,13.20
2018-10-02T19:03:44.094Z,13.00
2018-10-02T19:07:46.494Z,13.50
2018-10-02T19:11:55.570Z,12.60
2018-10-02T19:16:04.085Z,12.60
2018-10-02T19:20:17.830Z,13.00
2018-10-02T19:24:22.092Z,13.50
2018-10-02T19:28:24.725Z,14.00
2018-10-02T19:32:27.125Z,13.00
2018-10-02T19:36:29.575Z,13.80
2018-10-02T19:40:33.851Z,13.20
2018-10-02T19:44:36.887Z,13.30
2018-10-02T19:48:39.317Z,13.30
2018-10-02T19:52:41.730Z,13.50
2018-10-02T19:56:44.128Z,13.90
2018-10-02T20:00:47.780Z,13.60
2018-10-02T20:04:50.099Z,13.50
2018-10-02T20:08:53.460Z,13.80
2018-10-02T20:12:55.891Z,13.90
2018-10-02T20:17:01.463Z,13.30
2018-10-02T20:21:03.750Z,13.10
2018-10-02T20:25:06.122Z,13.60
2018-10-02T20:29:09.152Z,13.50
2018-10-02T20:33:12.409Z,12.70
2018-10-02T20:37:14.875Z,13.10
2018-10-02T20:41:17.223Z,13.40
2018-10-02T20:45:19.566Z,13.30
2018-10-02T20:49:22.004Z,13.30
2018-10-02T20:53:24.297Z,13.00
2018-10-02T20:57:26.625Z,13.30
2018-10-02T21:01:28.974Z,13.30
2018-10-02T21:05:31.248Z,14.00
2018-10-02T21:09:33.611Z,13.40
2018-10-02T21:13:36.140Z,13.80
2018-10-02T21:17:38.535Z,13.60
2018-10-02T21:21:40.889Z,13.70
2018-10-02T21:25:43.170Z,13.60
2018-10-02T21:29:45.529Z,13.70
2018-10-02T21:33:47.839Z,14.30
2018-10-02T21:37:50.170Z,13.60
2018-10-02T21:41:52.530Z,13.80
2018-10-02T21:45:54.871Z,14.20
2018-10-02T21:49:57.230Z,14.10
2018-10-02T21:53:59.549Z,13.90
2018-10-02T21:58:01.853Z,15.00
2018-10-02T22:02:04.243Z,14.80
2018-10-02T22:06:06.853Z,14.00
2018-10-02T22:10:09.206Z,14.40
2018-10-02T22:14:11.559Z,14.90
2018-10-02T22:18:13.870Z,14.50
2018-10-02T22:22:16.845Z,14.30
2018-10-02T22:26:19.189Z,14.00
2018-10-02T22:30:21.524Z,14.50
2018-10-02T22:34:23.864Z,14.10
2018-10-02T22:38:26.148Z,14.00
2018-10-02T22:42:28.484Z,14.80
2018-10-02T22:46:30.928Z,14.10
2018-10-02T22:50:33.283Z,15.00
2018-10-02T22:54:35.670Z,14.80
2018-10-02T22:58:38.004Z,14.30
2018-10-02T23:02:40.268Z,13.60
2018-10-02T23:06:42.639Z,13.80
2018-10-02T23:10:44.914Z,14.00
2018-10-02T23:14:47.244Z,14.80
2018-10-02T23:18:49.598Z,14.30
2018-10-02T23:22:51.952Z,14.50
2018-10-02T23:26:54.223Z,14.40
2018-10-02T23:30:56.681Z,14.50
2018-10-02T23:34:59.000Z,14.80
2018-10-02T23:39:01.674Z,14.10
2018-10-02T23:43:03.953Z,15.40
2018-10-02T23:47:06.199Z,14.90
2018-10-02T23:51:08.503Z,15.20
2018-10-02T23:55:10.834Z,14.20
2018-10-02T23:59:13.139Z,15.10
